Time;durP1;ratioP1;P1;durP2;ratioP2;P2;SDS_P1;SDS_P2;PMS_P1;PMS_P2;Temp;Humidity;BMP_temperature;BMP_pressure;BME280_temperature;BME280_humidity;BME280_pressure;Samples;Min_cycle;Max_cycle;Signal;HPM_P1;HPM_P2
2022/10/16 00:01:48;;;;;;;5.97;5.00;;;14.60;99.90;;;;;;4320528;28;10000493;-70
2022/10/16 00:04:14;;;;;;;6.53;5.00;;;14.50;99.90;;;;;;5016507;28;20434;-71
2022/10/16 00:06:40;;;;;;;6.57;5.47;;;14.50;99.90;;;;;;5020807;28;20835;-70
2022/10/16 00:09:06;;;;;;;6.43;5.20;;;14.50;99.90;;;;;;5014697;28;20163;-70
2022/10/16 00:11:36;;;;;;;7.03;5.18;;;14.50;99.90;;;;;;5016305;28;20061;-70
2022/10/16 00:14:04;;;;;;;5.07;4.60;;;14.50;99.90;;;;;;5024852;28;20816;-71
2022/10/16 00:16:31;;;;;;;4.97;4.40;;;14.50;99.90;;;;;;5021637;28;20850;-71
2022/10/16 00:18:57;;;;;;;6.75;4.32;;;14.50;99.90;;;;;;5028092;28;20089;-70
2022/10/16 00:21:25;;;;;;;4.28;3.88;;;14.50;99.90;;;;;;5015479;28;20037;-70
2022/10/16 00:23:56;;;;;;;4.80;4.05;;;14.40;99.90;;;;;;5014124;28;20043;-71
2022/10/16 00:26:22;;;;;;;6.10;4.07;;;14.50;99.90;;;;;;5018202;28;20248;-71
2022/10/16 00:28:50;;;;;;;4.38;3.97;;;14.50;99.90;;;;;;5020422;28;20616;-70
2022/10/16 00:31:17;;;;;;;4.50;4.10;;;14.40;99.90;;;;;;5017189;28;20083;-71
2022/10/16 00:33:43;;;;;;;4.55;4.15;;;14.40;99.90;;;;;;5014332;28;20047;-71
2022/10/16 00:36:13;;;;;;;4.20;3.80;;;14.40;99.90;;;;;;5015428;28;20029;-71
2022/10/16 00:38:39;;;;;;;8.68;4.20;;;14.40;99.90;;;;;;5014610;28;20033;-71
2022/10/16 00:41:11;;;;;;;4.93;4.40;;;14.40;99.90;;;;;;5026977;28;20026;-71
2022/10/16 00:43:41;;;;;;;3.92;3.60;;;14.40;99.90;;;;;;5020457;28;20702;-71
2022/10/16 00:46:16;;;;;;;3.58;3.30;;;14.40;99.90;;;;;;5032512;28;20377;-71
2022/10/16 00:48:48;;;;;;;4.68;4.18;;;14.40;99.90;;;;;;5026857;28;20048;-70
2022/10/16 00:51:14;;;;;;;4.10;3.67;;;14.40;99.90;;;;;;5031156;28;20055;-71
2022/10/16 00:53:40;;;;;;;3.92;3.53;;;14.40;99.90;;;;;;5022088;28;20668;-71
2022/10/16 00:56:06;;;;;;;4.88;3.72;;;14.40;99.90;;;;;;5030364;28;20347;-71
2022/10/16 00:58:32;;;;;;;6.72;3.78;;;14.40;99.90;;;;;;5028956;28;20392;-71
2022/10/16 01:00:57;;;;;;;4.38;3.78;;;14.40;99.90;;;;;;5030278;28;20055;-71
2022/10/16 01:03:33;;;;;;;4.93;4.07;;;14.30;99.90;;;;;;5021318;28;20018;-71
2022/10/16 01:06:08;;;;;;;5.57;4.40;;;14.30;99.90;;;;;;5017951;28;20445;-70
2022/10/16 01:08:47;;;;;;;9.50;5.40;;;14.30;99.90;;;;;;5023990;28;20037;-70
2022/10/16 01:11:30;;;;;;;4.80;4.40;;;14.30;99.90;;;;;;5026597;28;20492;-70
2022/10/16 01:14:01;;;;;;;5.10;4.70;;;14.30;99.90;;;;;;5026487;28;20028;-70
2022/10/16 01:16:48;;;;;;;5.25;4.80;;;14.30;99.90;;;;;;5025681;28;20392;-70
2022/10/16 01:19:25;;;;;;;5.95;4.65;;;14.30;99.90;;;;;;5027370;28;20030;-70
2022/10/16 01:21:53;;;;;;;6.30;5.72;;;14.30;99.90;;;;;;5019423;28;20035;-71
2022/10/16 01:24:24;;;;;;;5.82;5.20;;;14.30;99.90;;;;;;5022914;28;20442;-70
2022/10/16 01:27:10;;;;;;;6.10;5.60;;;14.30;99.90;;;;;;5020081;28;20154;-71
2022/10/16 01:29:51;;;;;;;10.52;5.28;;;14.30;99.90;;;;;;5024694;28;20053;-70
2022/10/16 01:32:49;;;;;;;9.25;6.10;;;14.30;99.90;;;;;;5021157;28;20485;-71
2022/10/16 01:35:25;;;;;;;8.10;6.13;;;14.30;99.90;;;;;;5022964;28;20065;-71
2022/10/16 01:38:10;;;;;;;7.78;6.70;;;14.30;99.90;;;;;;5016022;28;20022;-71
2022/10/16 01:40:41;;;;;;;8.05;7.20;;;14.20;99.90;;;;;;5022882;28;20485;-71
2022/10/16 01:43:14;;;;;;;7.53;6.72;;;14.20;99.90;;;;;;5014513;28;20041;-71
2022/10/16 01:45:41;;;;;;;9.05;6.95;;;14.20;99.90;;;;;;5019641;28;20029;-71
2022/10/16 01:48:09;;;;;;;10.35;7.57;;;14.20;99.90;;;;;;5020908;28;20310;-71
2022/10/16 01:50:39;;;;;;;9.57;8.00;;;14.20;99.90;;;;;;5022532;28;20037;-71
2022/10/16 01:53:08;;;;;;;8.50;7.80;;;14.20;99.90;;;;;;5022107;28;20148;-71
2022/10/16 01:55:44;;;;;;;8.93;7.95;;;14.20;99.90;;;;;;5016995;28;20060;-70
2022/10/16 01:58:12;;;;;;;9.98;7.72;;;14.20;99.90;;;;;;5020649;28;20044;-71
2022/10/16 02:00:40;;;;;;;8.85;7.47;;;14.10;99.90;;;;;;5025527;28;20876;-71
2022/10/16 02:03:10;;;;;;;7.95;7.15;;;14.10;99.90;;;;;;5015900;28;20045;-71
2022/10/16 02:05:55;;;;;;;9.50;8.20;;;14.00;99.90;;;;;;5017982;28;20049;-71
2022/10/16 02:08:24;;;;;;;10.85;9.38;;;14.10;99.90;;;;;;5020131;28;20035;-71
2022/10/16 02:10:50;;;;;;;10.63;9.63;;;14.10;99.90;;;;;;5021969;28;20056;-71
2022/10/16 02:13:32;;;;;;;11.00;9.90;;;14.00;99.90;;;;;;5017789;28;20474;-71
2022/10/16 02:15:58;;;;;;;12.13;9.77;;;14.00;99.90;;;;;;5023386;28;20565;-71
2022/10/16 02:18:28;;;;;;;10.95;9.82;;;14.00;99.90;;;;;;5023194;28;20068;-71
2022/10/16 02:21:14;;;;;;;11.55;10.35;;;14.00;99.90;;;;;;5021471;28;20029;-70
2022/10/16 02:23:52;;;;;;;15.13;10.80;;;14.00;99.90;;;;;;5022037;28;20106;-70
2022/10/16 02:26:33;;;;;;;13.18;11.73;;;14.00;99.90;;;;;;5025156;28;20033;-70
2022/10/16 02:29:08;;;;;;;14.43;12.32;;;14.00;99.90;;;;;;5032160;28;20045;-71
2022/10/16 02:31:37;;;;;;;13.07;10.95;;;14.00;99.90;;;;;;5022727;28;20029;-70
2022/10/16 02:34:04;;;;;;;11.50;10.27;;;13.90;99.90;;;;;;5022726;28;20048;-70
2022/10/16 02:36:31;;;;;;;13.68;10.95;;;13.90;99.90;;;;;;5024314;28;20127;-71
2022/10/16 02:39:00;;;;;;;11.32;9.70;;;13.90;99.90;;;;;;5017987;28;20033;-70
2022/10/16 02:41:26;;;;;;;10.23;9.25;;;13.90;99.90;;;;;;5016030;28;20449;-71
2022/10/16 02:43:52;;;;;;;10.10;9.07;;;13.80;99.90;;;;;;5019840;28;20025;-71
2022/10/16 02:46:18;;;;;;;10.80;8.68;;;13.80;99.90;;;;;;5020191;28;20032;-71
2022/10/16 02:48:44;;;;;;;11.48;9.20;;;13.80;99.90;;;;;;5017011;28;20033;-70
2022/10/16 02:51:10;;;;;;;10.38;8.88;;;13.80;99.90;;;;;;5022947;28;20040;-71
2022/10/16 02:53:35;;;;;;;9.98;8.98;;;13.70;99.90;;;;;;5016190;28;20062;-71
2022/10/16 02:56:01;;;;;;;9.10;8.20;;;13.70;99.90;;;;;;5023837;28;20030;-71
2022/10/16 02:58:27;;;;;;;8.77;7.97;;;13.70;99.90;;;;;;5027425;28;20112;-71
2022/10/16 03:00:52;;;;;;;11.15;8.20;;;13.70;99.90;;;;;;5022884;28;20124;-71
2022/10/16 03:03:18;;;;;;;7.25;6.55;;;13.70;99.90;;;;;;5023490;28;20482;-71
2022/10/16 03:05:45;;;;;;;8.00;7.32;;;13.70;99.90;;;;;;5027197;28;20729;-70
2022/10/16 03:08:12;;;;;;;10.10;7.15;;;13.70;99.90;;;;;;5026161;28;20625;-71
2022/10/16 03:10:37;;;;;;;9.13;6.57;;;13.80;99.90;;;;;;5026540;28;20083;-72
2022/10/16 03:13:03;;;;;;;7.50;6.68;;;13.80;99.90;;;;;;5023292;28;20029;-70
2022/10/16 03:15:29;;;;;;;10.07;6.43;;;13.80;99.90;;;;;;5023869;28;20057;-71
2022/10/16 03:17:57;;;;;;;8.30;6.72;;;13.80;99.90;;;;;;5028575;28;20412;-71
2022/10/16 03:20:23;;;;;;;11.43;7.22;;;13.80;99.90;;;;;;5023415;28;20029;-71
2022/10/16 03:22:48;;;;;;;6.72;5.90;;;13.80;99.90;;;;;;5025403;28;20025;-71
2022/10/16 03:25:14;;;;;;;8.93;6.68;;;13.80;99.90;;;;;;5029087;28;20385;-71
2022/10/16 03:27:40;;;;;;;8.45;6.80;;;13.80;99.90;;;;;;5025132;28;20359;-71
2022/10/16 03:30:06;;;;;;;12.70;6.88;;;13.80;99.90;;;;;;5022386;28;20793;-71
2022/10/16 03:32:31;;;;;;;11.20;6.55;;;13.70;99.90;;;;;;5022624;28;20377;-71
2022/10/16 03:34:57;;;;;;;7.93;6.80;;;;;;;;;;5022122;28;20033;-71
2022/10/16 03:37:23;;;;;;;9.32;6.82;;;13.70;99.90;;;;;;5025942;28;20113;-71
2022/10/16 03:39:49;;;;;;;12.65;7.57;;;13.70;99.90;;;;;;5031601;28;20503;-71
2022/10/16 03:42:14;;;;;;;7.43;6.80;;;13.70;99.90;;;;;;5028126;28;20028;-71
2022/10/16 03:44:40;;;;;;;7.18;6.28;;;13.70;99.90;;;;;;5023538;28;20026;-71
2022/10/16 03:47:06;;;;;;;7.47;6.13;;;13.60;99.90;;;;;;5021427;28;20017;-71
2022/10/16 03:49:31;;;;;;;7.45;6.57;;;13.60;99.90;;;;;;5026774;28;20029;-71
2022/10/16 03:51:57;;;;;;;7.78;6.53;;;13.60;99.90;;;;;;5024497;28;20033;-71
2022/10/16 03:54:23;;;;;;;11.15;6.68;;;13.50;99.90;;;;;;5025076;28;20025;-71
2022/10/16 03:56:48;;;;;;;6.60;5.68;;;13.50;99.90;;;;;;5026473;28;20040;-71
2022/10/16 03:59:14;;;;;;;7.95;6.13;;;13.50;99.90;;;;;;5022054;28;20036;-71
2022/10/16 04:01:40;;;;;;;7.65;5.90;;;13.50;99.90;;;;;;5023028;28;20021;-72
2022/10/16 04:04:06;;;;;;;5.88;5.22;;;13.50;99.90;;;;;;5024179;28;20669;-71
2022/10/16 04:06:31;;;;;;;6.03;5.45;;;13.40;99.90;;;;;;5020977;28;20030;-71
2022/10/16 04:08:57;;;;;;;7.45;5.55;;;13.40;99.90;;;;;;5019643;28;20389;-71
2022/10/16 04:11:23;;;;;;;5.93;5.32;;;13.40;99.90;;;;;;5022482;28;20029;-71
2022/10/16 04:13:48;;;;;;;6.43;5.55;;;13.40;99.90;;;;;;5024623;28;20036;-72
2022/10/16 04:16:14;;;;;;;7.57;5.50;;;13.40;99.90;;;;;;5030886;28;20068;-71
2022/10/16 04:18:39;;;;;;;6.25;5.70;;;13.40;99.90;;;;;;5023712;28;20254;-72
2022/10/16 04:21:06;;;;;;;8.00;6.40;;;13.40;99.90;;;;;;5027657;28;20028;-71
2022/10/16 04:23:32;;;;;;;7.18;6.47;;;13.40;99.90;;;;;;5025882;28;20470;-71
2022/10/16 04:25:58;;;;;;;8.07;6.53;;;13.40;99.90;;;;;;5024791;28;20473;-71
2022/10/16 04:28:24;;;;;;;9.73;7.13;;;13.40;99.90;;;;;;5028102;28;20072;-71
2022/10/16 04:30:50;;;;;;;8.07;7.28;;;13.40;99.90;;;;;;5026252;28;20037;-71
2022/10/16 04:33:16;;;;;;;8.50;6.85;;;13.40;99.90;;;;;;5024053;28;20037;-72
2022/10/16 04:35:41;;;;;;;7.97;7.22;;;13.40;99.90;;;;;;5029951;28;20279;-72
2022/10/16 04:38:07;;;;;;;7.22;6.55;;;13.50;99.90;;;;;;5034278;28;20037;-72
2022/10/16 04:40:33;;;;;;;13.45;6.45;;;13.50;99.90;;;;;;5031120;28;20124;-72
2022/10/16 04:42:59;;;;;;;7.93;6.22;;;13.50;99.90;;;;;;5029120;28;20029;-72
2022/10/16 04:45:25;;;;;;;7.32;5.70;;;13.50;99.90;;;;;;5032115;28;20542;-72
2022/10/16 04:47:50;;;;;;;9.38;5.57;;;13.50;99.90;;;;;;5034826;28;20368;-71
2022/10/16 04:50:16;;;;;;;5.97;5.47;;;13.50;99.90;;;;;;5037567;28;20127;-71
2022/10/16 04:52:42;;;;;;;6.30;5.70;;;13.50;99.90;;;;;;5029803;28;20373;-71
2022/10/16 04:55:07;;;;;;;8.90;6.60;;;13.50;99.90;;;;;;5035097;28;20481;-70
2022/10/16 04:57:33;;;;;;;7.18;6.40;;;13.50;99.90;;;;;;5024282;28;20048;-71
2022/10/16 04:59:59;;;;;;;7.75;6.93;;;13.50;99.90;;;;;;5028799;28;20064;-71
2022/10/16 05:02:25;;;;;;;10.02;7.63;;;13.50;99.90;;;;;;5031285;28;20521;-71
2022/10/16 05:04:51;;;;;;;8.65;6.90;;;13.50;99.90;;;;;;5034060;28;20021;-71
2022/10/16 05:07:17;;;;;;;8.82;7.93;;;13.50;99.90;;;;;;5028363;28;20013;-71
2022/10/16 05:09:43;;;;;;;11.50;8.82;;;13.50;99.90;;;;;;5035947;28;20049;-71
2022/10/16 05:12:08;;;;;;;9.48;8.10;;;13.50;99.90;;;;;;5032451;28;20056;-71
2022/10/16 05:14:34;;;;;;;9.63;8.65;;;13.50;99.90;;;;;;5032550;28;20028;-71
2022/10/16 05:17:00;;;;;;;10.15;8.52;;;13.50;99.90;;;;;;5037964;28;20044;-71
2022/10/16 05:19:26;;;;;;;9.82;8.48;;;13.50;99.90;;;;;;5033127;28;20023;-71
2022/10/16 05:21:51;;;;;;;9.38;8.48;;;13.50;99.90;;;;;;5035809;28;20029;-71
2022/10/16 05:24:17;;;;;;;11.43;8.45;;;13.50;99.90;;;;;;5029817;28;20473;-71
2022/10/16 05:26:43;;;;;;;10.15;8.85;;;13.50;99.90;;;;;;5028453;28;20048;-71
2022/10/16 05:29:09;;;;;;;11.15;8.70;;;13.60;99.90;;;;;;5033131;28;20034;-71
2022/10/16 05:31:35;;;;;;;10.95;8.98;;;13.60;99.90;;;;;;5031698;28;20039;-71
2022/10/16 05:34:01;;;;;;;12.85;9.52;;;13.60;99.90;;;;;;5032525;28;20009;-72
2022/10/16 05:36:27;;;;;;;9.93;9.00;;;13.60;99.90;;;;;;5027911;28;20038;-71
2022/10/16 05:38:52;;;;;;;12.30;8.73;;;13.60;99.90;;;;;;5028707;28;20025;-71
2022/10/16 05:41:23;;;;;;;13.18;8.93;;;13.60;99.90;;;;;;5038847;28;20060;-71
2022/10/16 05:43:49;;;;;;;11.95;9.65;;;13.60;99.90;;;;;;5028939;28;20505;-71
2022/10/16 05:46:16;;;;;;;13.10;9.10;;;13.50;99.90;;;;;;5024516;28;20017;-72
2022/10/16 05:48:41;;;;;;;11.88;9.40;;;13.50;99.90;;;;;;5033169;28;20469;-71
2022/10/16 05:51:10;;;;;;;14.70;10.02;;;13.50;99.90;;;;;;5036227;28;20033;-71
2022/10/16 05:53:37;;;;;;;11.55;9.35;;;13.60;99.90;;;;;;5030417;28;20071;-71
2022/10/16 05:56:04;;;;;;;10.32;8.95;;;13.60;99.90;;;;;;5033890;28;20040;-72
2022/10/16 05:58:32;;;;;;;12.68;9.30;;;13.60;99.90;;;;;;5032823;28;20033;-71
2022/10/16 06:01:18;;;;;;;14.30;10.15;;;13.60;99.90;;;;;;5028207;28;20037;-71
2022/10/16 06:03:43;;;;;;;11.95;9.00;;;13.60;99.90;;;;;;5027778;28;20033;-71
2022/10/16 06:06:11;;;;;;;10.82;9.35;;;13.60;99.90;;;;;;5033624;28;20017;-71
2022/10/16 06:08:37;;;;;;;14.15;9.20;;;13.60;99.90;;;;;;5027030;28;20092;-71
2022/10/16 06:11:05;;;;;;;13.85;8.50;;;13.60;99.90;;;;;;5030313;28;20107;-71
2022/10/16 06:13:31;;;;;;;16.45;11.57;;;13.60;99.90;;;;;;5030051;28;20032;-71
2022/10/16 06:15:58;;;;;;;17.27;11.15;;;13.60;99.90;;;;;;5029138;28;20300;-71
2022/10/16 06:18:25;;;;;;;14.88;10.82;;;13.60;99.90;;;;;;5030876;28;20025;-71
2022/10/16 06:20:51;;;;;;;10.25;7.70;;;13.60;99.90;;;;;;5027238;28;20030;-71
2022/10/16 06:23:17;;;;;;;10.32;8.00;;;13.60;99.90;;;;;;5026132;28;20569;-71
2022/10/16 06:25:42;;;;;;;13.13;6.72;;;13.60;99.90;;;;;;5033021;28;20544;-71
2022/10/16 06:28:08;;;;;;;8.63;6.43;;;13.60;99.90;;;;;;5034170;28;20136;-71
2022/10/16 06:30:34;;;;;;;9.32;6.18;;;13.60;99.90;;;;;;5027687;28;20022;-71
2022/10/16 06:32:59;;;;;;;11.27;6.28;;;13.60;99.90;;;;;;5029410;28;20505;-71
2022/10/16 06:35:25;;;;;;;23.33;17.85;;;13.60;99.90;;;;;;5033626;28;20064;-71
2022/10/16 06:37:53;;;;;;;8.68;6.57;;;13.60;99.90;;;;;;5033341;28;20253;-71
2022/10/16 06:40:18;;;;;;;12.77;8.68;;;13.60;99.90;;;;;;5026815;28;20497;-72
2022/10/16 06:42:44;;;;;;;8.63;6.78;;;13.60;99.90;;;;;;5028979;28;20095;-71
2022/10/16 06:45:10;;;;;;;7.78;4.90;;;13.60;99.90;;;;;;5026321;28;20055;-72
2022/10/16 06:47:36;;;;;;;8.52;6.47;;;13.60;99.90;;;;;;5025676;28;20592;-71
2022/10/16 06:50:03;;;;;;;10.65;5.00;;;13.60;99.90;;;;;;5027957;28;20048;-70
2022/10/16 06:52:29;;;;;;;5.63;5.13;;;13.60;99.90;;;;;;4328505;28;10000790;-70
2022/10/16 06:54:54;;;;;;;10.15;6.60;;;13.60;99.90;;;;;;5027316;28;20421;-71
2022/10/16 06:57:20;;;;;;;7.00;5.65;;;13.60;99.90;;;;;;5035197;28;20102;-71
2022/10/16 06:59:46;;;;;;;10.00;5.82;;;13.60;99.90;;;;;;5029001;28;20643;-71
2022/10/16 07:02:11;;;;;;;11.13;5.00;;;13.70;99.90;;;;;;5024371;28;20492;-71
2022/10/16 07:04:37;;;;;;;7.32;4.47;;;13.70;99.90;;;;;;5018147;28;20029;-69
2022/10/16 07:07:02;;;;;;;5.53;4.00;;;13.70;99.90;;;;;;5027241;28;20056;-70
2022/10/16 07:09:28;;;;;;;8.15;3.72;;;13.70;99.90;;;;;;5030843;28;20036;-71
2022/10/16 07:11:54;;;;;;;4.90;3.80;;;13.60;99.90;;;;;;5018092;28;20358;-70
2022/10/16 07:14:21;;;;;;;4.80;3.60;;;13.60;99.90;;;;;;5021017;28;20025;-71
2022/10/16 07:16:47;;;;;;;5.68;3.90;;;13.70;99.90;;;;;;5017025;28;20524;-71
2022/10/16 07:19:15;;;;;;;11.10;8.48;;;13.60;99.90;;;;;;5028116;28;20025;-71
2022/10/16 07:21:41;;;;;;;12.23;7.30;;;13.60;99.90;;;;;;5027132;28;20041;-70
2022/10/16 07:24:13;;;;;;;8.95;5.93;;;13.70;99.90;;;;;;5029218;28;20052;-70
2022/10/16 07:26:39;;;;;;;10.20;6.95;;;13.70;99.90;;;;;;5022500;28;20099;-71
2022/10/16 07:29:07;;;;;;;9.20;6.90;;;13.70;99.90;;;;;;5031925;28;20067;-70
2022/10/16 07:31:33;;;;;;;7.22;6.18;;;13.80;99.90;;;;;;5027605;28;20361;-70
2022/10/16 07:34:00;;;;;;;12.63;8.15;;;13.80;99.90;;;;;;5023164;28;20540;-70
2022/10/16 07:36:25;;;;;;;12.70;9.98;;;13.90;99.90;;;;;;5021881;28;20116;-71
2022/10/16 07:38:51;;;;;;;5.72;3.47;;;13.90;99.90;;;;;;5028571;28;21315;-70
2022/10/16 07:41:19;;;;;;;6.53;4.78;;;13.90;99.90;;;;;;5031531;28;20095;-70
2022/10/16 07:43:49;;;;;;;10.63;7.78;;;13.90;99.90;;;;;;5032585;28;20375;-69
2022/10/16 07:46:16;;;;;;;16.65;13.18;;;13.90;99.90;;;;;;5031830;28;20355;-70
2022/10/16 07:48:45;;;;;;;16.40;13.00;;;13.90;99.90;;;;;;5027217;28;20020;-70
2022/10/16 07:51:12;;;;;;;10.50;8.95;;;13.90;99.90;;;;;;5028215;28;20044;-71
2022/10/16 07:53:37;;;;;;;9.80;8.80;;;14.00;99.90;;;;;;5029956;28;20037;-71
2022/10/16 07:56:05;;;;;;;11.35;7.70;;;14.00;99.90;;;;;;5036187;28;20037;-71
2022/10/16 07:58:32;;;;;;;11.82;8.02;;;14.00;99.90;;;;;;5024554;28;20033;-71
2022/10/16 08:00:58;;;;;;;6.65;4.00;;;14.00;99.90;;;;;;5029308;28;20060;-71
2022/10/16 08:03:25;;;;;;;5.75;3.97;;;14.00;99.90;;;;;;5034069;28;20406;-72
2022/10/16 08:05:51;;;;;;;8.32;5.43;;;14.00;99.90;;;;;;5031912;28;20419;-71
2022/10/16 08:08:18;;;;;;;3.15;2.75;;;14.10;99.90;;;;;;5034267;28;20080;-72
2022/10/16 08:10:43;;;;;;;3.97;2.72;;;14.10;99.90;;;;;;5031070;28;20044;-70
2022/10/16 08:13:09;;;;;;;3.13;2.47;;;14.10;99.90;;;;;;5031955;28;20029;-70
2022/10/16 08:15:35;;;;;;;3.85;2.92;;;14.20;99.90;;;;;;5026970;28;20059;-71
2022/10/16 08:18:03;;;;;;;9.40;7.63;;;14.20;99.90;;;;;;5033868;28;20025;-70
2022/10/16 08:20:30;;;;;;;17.58;12.18;;;14.30;99.90;;;;;;5032255;28;20033;-70
2022/10/16 08:22:56;;;;;;;24.42;14.45;;;14.30;99.90;;;;;;5029245;28;20067;-71
2022/10/16 08:25:23;;;;;;;12.20;8.65;;;14.30;99.90;;;;;;5031755;28;20147;-72
2022/10/16 08:27:49;;;;;;;7.93;6.68;;;14.40;99.90;;;;;;5030550;28;20498;-71
2022/10/16 08:30:15;;;;;;;4.80;2.72;;;14.40;99.90;;;;;;5032882;28;20715;-70
2022/10/16 08:32:41;;;;;;;4.55;3.45;;;14.50;99.90;;;;;;5026077;28;20029;-70
2022/10/16 08:35:11;;;;;;;3.80;3.50;;;14.60;99.90;;;;;;5031841;28;20036;-70
2022/10/16 08:37:37;;;;;;;3.78;3.40;;;14.60;99.90;;;;;;5043521;28;20033;-70
2022/10/16 08:40:15;;;;;;;12.07;5.38;;;14.70;99.90;;;;;;5038327;28;20061;-69
2022/10/16 08:43:05;;;;;;;6.45;4.70;;;14.70;99.90;;;;;;5026965;28;20496;-69
2022/10/16 08:45:53;;;;;;;3.65;3.13;;;14.80;99.90;;;;;;5033089;28;20033;-69
2022/10/16 08:48:42;;;;;;;4.82;3.75;;;14.90;99.90;;;;;;5031355;28;20389;-69
2022/10/16 08:51:11;;;;;;;4.80;3.65;;;15.00;99.90;;;;;;5028028;28;20254;-69
2022/10/16 08:53:41;;;;;;;5.50;3.20;;;15.20;99.90;;;;;;5018352;28;20490;-68
2022/10/16 08:56:07;;;;;;;5.07;3.30;;;15.20;99.90;;;;;;5022171;28;20048;-69
2022/10/16 08:58:33;;;;;;;4.57;3.20;;;15.20;99.90;;;;;;4675006;28;10000230;-69
2022/10/16 09:01:01;;;;;;;4.65;3.28;;;15.20;99.90;;;;;;5029475;28;20036;-69
2022/10/16 09:03:45;;;;;;;3.17;2.50;;;15.30;99.90;;;;;;5025328;28;20987;-69
2022/10/16 09:06:16;;;;;;;2.70;2.50;;;15.30;99.90;;;;;;5023941;28;20120;-70
2022/10/16 09:09:03;;;;;;;5.20;2.95;;;15.50;99.90;;;;;;5022826;28;20033;-70
2022/10/16 09:11:43;;;;;;;5.07;2.70;;;15.60;99.90;;;;;;5025348;28;20099;-70
2022/10/16 09:14:36;;;;;;;5.15;2.92;;;15.70;99.90;;;;;;5029115;28;20044;-70
2022/10/16 09:17:29;;;;;;;4.30;2.85;;;15.80;99.90;;;;;;5029055;28;20021;-72
2022/10/16 09:20:13;;;;;;;3.75;3.17;;;15.90;99.90;;;;;;5026690;28;20060;-72
2022/10/16 09:22:39;;;;;;;4.55;3.13;;;16.20;99.90;;;;;;5028671;28;20374;-71
2022/10/16 09:25:14;;;;;;;2.40;2.10;;;16.40;99.90;;;;;;5031772;28;20079;-71
2022/10/16 09:27:41;;;;;;;4.45;2.08;;;16.80;99.90;;;;;;5026461;28;20109;-71
2022/10/16 09:30:20;;;;;;;1.77;1.48;;;17.10;99.90;;;;;;5031699;28;20056;-71
2022/10/16 09:32:49;;;;;;;4.53;2.20;;;17.10;99.90;;;;;;5022060;28;20036;-71
2022/10/16 09:35:21;;;;;;;8.02;5.13;;;17.10;99.90;;;;;;5016623;28;20041;-71
2022/10/16 09:37:50;;;;;;;8.63;4.50;;;17.00;99.90;;;;;;5027236;28;20029;-71
2022/10/16 09:40:32;;;;;;;3.30;1.70;;;17.00;99.90;;;;;;5033834;28;20039;-77
2022/10/16 09:43:11;;;;;;;3.88;2.20;;;17.10;99.90;;;;;;5026514;28;20326;-77
2022/10/16 09:45:37;;;;;;;3.22;1.40;;;16.90;99.90;;;;;;5036788;28;20052;-77
2022/10/16 09:48:12;;;;;;;2.35;1.67;;;16.80;99.90;;;;;;5028161;28;20382;-77
2022/10/16 09:50:38;;;;;;;1.45;1.10;;;16.80;99.90;;;;;;5028587;28;20029;-77
2022/10/16 09:53:12;;;;;;;1.00;0.98;;;16.80;99.90;;;;;;5035323;28;20039;-77
2022/10/16 09:55:49;;;;;;;2.40;1.10;;;17.10;99.90;;;;;;5035953;28;20500;-77
2022/10/16 09:58:14;;;;;;;2.75;0.60;;;17.30;99.90;;;;;;5034297;28;20473;-77
2022/10/16 10:00:42;;;;;;;3.15;0.82;;;17.50;99.90;;;;;;5044894;28;20328;-77
2022/10/16 10:03:11;;;;;;;2.30;0.63;;;17.70;99.90;;;;;;5027305;28;20025;-76
2022/10/16 10:05:39;;;;;;;3.05;0.50;;;17.80;99.90;;;;;;5043225;28;20021;-76
2022/10/16 10:08:07;;;;;;;0.95;0.70;;;18.00;99.90;;;;;;5040995;28;20043;-77
2022/10/16 10:10:42;;;;;;;3.60;0.70;;;18.10;99.90;;;;;;5028028;28;20175;-77
2022/10/16 10:13:22;;;;;;;2.85;0.80;;;18.30;99.90;;;;;;5024234;28;20025;-77
2022/10/16 10:15:48;;;;;;;3.03;0.52;;;18.40;99.90;;;;;;5031873;28;20362;-77
2022/10/16 10:18:21;;;;;;;1.95;0.60;;;18.40;99.90;;;;;;5046369;28;20700;-77
2022/10/16 10:20:58;;;;;;;2.80;0.60;;;18.40;99.90;;;;;;5047371;28;20473;-77
2022/10/16 10:23:26;;;;;;;1.13;0.50;;;18.40;99.90;;;;;;5043408;28;20036;-77
2022/10/16 10:26:07;;;;;;;2.35;0.70;;;18.20;99.90;;;;;;5022278;28;20033;-77
2022/10/16 10:28:42;;;;;;;2.83;1.17;;;18.00;99.90;;;;;;5028035;28;20041;-77
2022/10/16 10:31:16;;;;;;;1.85;0.65;;;18.00;99.90;;;;;;5027494;28;20055;-77
2022/10/16 10:33:57;;;;;;;1.50;0.80;;;18.00;99.90;;;;;;5025080;28;20044;-77
2022/10/16 10:36:31;;;;;;;2.72;2.00;;;18.00;99.90;;;;;;5029441;28;20068;-77
2022/10/16 10:39:16;;;;;;;3.40;1.20;;;18.00;99.90;;;;;;5032097;28;20269;-77
2022/10/16 10:42:00;;;;;;;2.17;1.20;;;18.00;99.90;;;;;;5043558;28;20064;-77
2022/10/16 10:44:57;;;;;;;2.03;1.70;;;18.00;99.90;;;;;;5032527;28;20044;-77
2022/10/16 10:47:50;;;;;;;2.17;0.60;;;18.10;99.90;;;;;;5023154;28;20033;-77
2022/10/16 10:50:37;;;;;;;2.28;1.27;;;18.10;99.90;;;;;;5025464;28;20029;-77
2022/10/16 10:53:06;;;;;;;3.85;1.80;;;18.30;99.90;;;;;;5035622;28;20130;-77
2022/10/16 10:56:08;;;;;;;4.30;2.40;;;18.30;99.90;;;;;;5027010;28;20200;-77
2022/10/16 10:58:52;;;;;;;4.72;0.82;;;18.40;99.90;;;;;;5026885;28;20077;-77
2022/10/16 11:01:43;;;;;;;3.92;1.50;;;18.50;99.90;;;;;;5045685;28;20051;-77
2022/10/16 11:04:42;;;;;;;1.45;0.80;;;18.60;99.90;;;;;;5038841;28;20130;-77
2022/10/16 11:07:23;;;;;;;2.92;1.05;;;18.60;99.90;;;;;;5027549;28;20509;-78
2022/10/16 11:09:54;;;;;;;1.15;0.70;;;18.70;99.90;;;;;;5026768;28;20428;-77
2022/10/16 11:12:26;;;;;;;1.15;0.50;;;18.80;99.90;;;;;;5028384;28;20321;-77
2022/10/16 11:15:25;;;;;;;4.57;3.40;;;18.80;99.90;;;;;;5045501;28;20044;-77
2022/10/16 11:18:07;;;;;;;2.80;0.85;;;18.90;99.90;;;;;;5043302;28;20020;-78
2022/10/16 11:20:36;;;;;;;2.60;0.60;;;;;;;;;;5045137;28;20021;-77
2022/10/16 11:23:26;;;;;;;2.85;0.95;;;19.30;99.90;;;;;;5038951;28;20112;-77
2022/10/16 11:25:55;;;;;;;1.33;0.70;;;19.40;99.90;;;;;;5044214;28;20533;-77
2022/10/16 11:28:32;;;;;;;1.17;1.05;;;19.50;99.90;;;;;;5046510;28;20025;-77
2022/10/16 11:31:14;;;;;;;3.67;1.00;;;19.60;99.90;;;;;;5046353;28;20045;-77
2022/10/16 11:34:11;;;;;;;2.42;0.50;;;19.70;99.90;;;;;;5024956;28;20560;-77
2022/10/16 11:36:51;;;;;;;2.17;0.50;;;19.70;99.90;;;;;;5027502;28;20041;-77
2022/10/16 11:39:26;;;;;;;0.90;0.57;;;19.80;99.90;;;;;;5025270;28;20247;-78
2022/10/16 11:41:59;;;;;;;1.20;0.65;;;19.90;99.90;;;;;;5026687;28;20041;-78
2022/10/16 11:44:31;;;;;;;2.60;1.20;;;20.00;99.90;;;;;;5022116;28;20318;-77
2022/10/16 11:47:10;;;;;;;0.65;0.32;;;20.10;99.90;;;;;;5025749;28;20033;-77
2022/10/16 11:49:38;;;;;;;3.85;0.40;;;;;;;;;;5026495;28;20179;-77
2022/10/16 11:52:33;;;;;;;2.33;1.30;;;20.20;99.90;;;;;;5025463;28;20018;-78
2022/10/16 11:55:19;;;;;;;2.05;1.05;;;20.20;99.90;;;;;;5026003;28;20394;-77
2022/10/16 11:58:02;;;;;;;1.40;0.50;;;20.30;99.90;;;;;;5026202;28;20028;-77
2022/10/16 12:00:44;;;;;;;2.65;0.35;;;20.20;99.90;;;;;;5043713;28;20512;-78
2022/10/16 12:03:26;;;;;;;2.15;1.17;;;20.00;99.90;;;;;;5024651;28;20056;-78
2022/10/16 12:06:26;;;;;;;1.95;0.60;;;19.90;99.90;;;;;;5026602;28;20033;-78
2022/10/16 12:08:53;;;;;;;2.30;1.10;;;20.00;99.90;;;;;;5027756;28;20025;-77
2022/10/16 12:11:27;;;;;;;0.88;0.82;;;20.00;99.90;;;;;;5039028;28;20112;-78
2022/10/16 12:14:19;;;;;;;2.80;1.00;;;20.20;99.90;;;;;;5045751;28;20068;-78
2022/10/16 12:16:53;;;;;;;3.70;1.23;;;20.20;99.90;;;;;;5045497;28;20033;-78
2022/10/16 12:19:20;;;;;;;0.70;0.70;;;20.20;99.90;;;;;;5034600;28;20049;-77
2022/10/16 12:21:46;;;;;;;0.88;0.40;;;20.10;99.90;;;;;;5023988;28;20033;-78
2022/10/16 12:24:37;;;;;;;0.40;0.30;;;20.10;99.90;;;;;;5030765;28;20389;-77
2022/10/16 12:27:06;;;;;;;2.05;0.30;;;20.10;99.90;;;;;;5026130;28;20390;-78
2022/10/16 12:29:40;;;;;;;3.25;0.40;;;20.20;99.90;;;;;;5025844;28;20041;-77
2022/10/16 12:32:31;;;;;;;0.95;0.30;;;20.20;99.90;;;;;;5026980;28;20037;-78
2022/10/16 12:34:58;;;;;;;2.20;0.47;;;20.30;99.90;;;;;;5043548;28;20025;-78
2022/10/16 12:37:27;;;;;;;1.00;0.30;;;20.40;99.90;;;;;;5051258;28;20082;-77
2022/10/16 12:39:55;;;;;;;0.50;0.30;;;20.60;99.90;;;;;;5059598;28;20017;-77
2022/10/16 12:42:23;;;;;;;0.52;0.30;;;20.60;99.90;;;;;;5026741;28;20367;-77
2022/10/16 12:44:49;;;;;;;2.20;0.30;;;20.60;99.90;;;;;;5036756;28;20220;-77
2022/10/16 12:47:24;;;;;;;4.10;0.30;;;20.40;99.90;;;;;;5039699;28;20026;-77
2022/10/16 12:49:54;;;;;;;2.72;0.50;;;20.10;99.90;;;;;;5048997;28;20499;-77
2022/10/16 12:52:38;;;;;;;1.17;0.40;;;20.00;99.90;;;;;;5043790;28;20564;-78
2022/10/16 12:55:12;;;;;;;1.75;0.30;;;20.10;99.90;;;;;;5045501;28;20136;-78
2022/10/16 12:58:11;;;;;;;0.65;0.38;;;20.30;99.90;;;;;;5033213;28;20025;-77
2022/10/16 13:00:56;;;;;;;1.45;0.32;;;20.60;99.90;;;;;;5029499;28;20120;-77
2022/10/16 13:03:24;;;;;;;1.00;0.63;;;20.70;99.90;;;;;;5024319;28;20132;-77
2022/10/16 13:06:06;;;;;;;2.17;0.30;;;;;;;;;;5036830;28;20227;-78